sensor_id;sensor_type;location;lat;lon;timestamp;temperature;humidity
12839;DHT22;6486;51.034;5.262;2023-07-31T00:00:13;18.20;86.50
12839;DHT22;6486;51.034;5.262;2023-07-31T00:02:38;18.20;86.50
12839;DHT22;6486;51.034;5.262;2023-07-31T00:05:04;18.20;86.40
12839;DHT22;6486;51.034;5.262;2023-07-31T00:07:30;18.20;86.30
12839;DHT22;6486;51.034;5.262;2023-07-31T00:09:56;18.20;86.20
12839;DHT22;6486;51.034;5.262;2023-07-31T00:12:22;18.20;86.10
12839;DHT22;6486;51.034;5.262;2023-07-31T00:14:48;18.20;85.90
12839;DHT22;6486;51.034;5.262;2023-07-31T00:17:14;18.10;85.70
12839;DHT22;6486;51.034;5.262;2023-07-31T00:19:39;18.10;85.80
12839;DHT22;6486;51.034;5.262;2023-07-31T00:22:05;18.10;85.90
12839;DHT22;6486;51.034;5.262;2023-07-31T00:24:31;18.00;85.80
12839;DHT22;6486;51.034;5.262;2023-07-31T00:26:57;18.00;85.80
12839;DHT22;6486;51.034;5.262;2023-07-31T00:29:22;18.00;85.90
12839;DHT22;6486;51.034;5.262;2023-07-31T00:31:48;18.00;85.90
12839;DHT22;6486;51.034;5.262;2023-07-31T00:34:13;17.90;85.80
12839;DHT22;6486;51.034;5.262;2023-07-31T00:36:39;17.90;85.90
12839;DHT22;6486;51.034;5.262;2023-07-31T00:39:05;18.00;86.00
12839;DHT22;6486;51.034;5.262;2023-07-31T00:41:30;18.00;85.90
12839;DHT22;6486;51.034;5.262;2023-07-31T00:43:56;18.00;85.90
12839;DHT22;6486;51.034;5.262;2023-07-31T00:46:22;18.00;85.90
12839;DHT22;6486;51.034;5.262;2023-07-31T00:48:48;18.00;85.90
12839;DHT22;6486;51.034;5.262;2023-07-31T00:51:14;18.00;85.90
12839;DHT22;6486;51.034;5.262;2023-07-31T00:53:40;18.00;85.90
12839;DHT22;6486;51.034;5.262;2023-07-31T00:56:06;18.00;85.90
12839;DHT22;6486;51.034;5.262;2023-07-31T00:58:33;18.00;85.90
12839;DHT22;6486;51.034;5.262;2023-07-31T01:00:58;18.00;85.90
12839;DHT22;6486;51.034;5.262;2023-07-31T01:03:24;18.00;85.90
12839;DHT22;6486;51.034;5.262;2023-07-31T01:06:11;18.00;86.00
12839;DHT22;6486;51.034;5.262;2023-07-31T01:11:22;18.00;86.00
12839;DHT22;6486;51.034;5.262;2023-07-31T01:13:50;18.00;86.00
12839;DHT22;6486;51.034;5.262;2023-07-31T01:16:16;18.10;86.00
12839;DHT22;6486;51.034;5.262;2023-07-31T01:18:41;18.10;86.10
12839;DHT22;6486;51.034;5.262;2023-07-31T01:24:19;18.00;86.20
12839;DHT22;6486;51.034;5.262;2023-07-31T01:26:53;18.10;86.30
12839;DHT22;6486;51.034;5.262;2023-07-31T01:32:09;18.10;86.50
12839;DHT22;6486;51.034;5.262;2023-07-31T01:34:36;18.10;86.80
12839;DHT22;6486;51.034;5.262;2023-07-31T01:37:03;18.10;86.40
12839;DHT22;6486;51.034;5.262;2023-07-31T01:39:28;18.20;86.40
12839;DHT22;6486;51.034;5.262;2023-07-31T01:41:54;18.20;86.40
12839;DHT22;6486;51.034;5.262;2023-07-31T01:44:20;18.20;86.40
12839;DHT22;6486;51.034;5.262;2023-07-31T01:46:45;18.20;86.40
12839;DHT22;6486;51.034;5.262;2023-07-31T01:49:11;18.20;86.40
12839;DHT22;6486;51.034;5.262;2023-07-31T01:51:36;18.20;86.50
12839;DHT22;6486;51.034;5.262;2023-07-31T01:54:02;18.20;86.50
12839;DHT22;6486;51.034;5.262;2023-07-31T01:56:28;18.20;86.50
12839;DHT22;6486;51.034;5.262;2023-07-31T01:58:54;18.20;86.50
12839;DHT22;6486;51.034;5.262;2023-07-31T02:01:20;18.30;86.60
12839;DHT22;6486;51.034;5.262;2023-07-31T02:03:45;18.30;86.40
12839;DHT22;6486;51.034;5.262;2023-07-31T02:06:11;18.30;86.30
12839;DHT22;6486;51.034;5.262;2023-07-31T02:08:37;18.40;86.30
12839;DHT22;6486;51.034;5.262;2023-07-31T02:11:03;18.40;86.30
12839;DHT22;6486;51.034;5.262;2023-07-31T02:13:29;18.40;86.30
12839;DHT22;6486;51.034;5.262;2023-07-31T02:15:54;18.40;86.30
12839;DHT22;6486;51.034;5.262;2023-07-31T02:18:20;18.30;86.20
12839;DHT22;6486;51.034;5.262;2023-07-31T02:20:50;18.40;86.30
12839;DHT22;6486;51.034;5.262;2023-07-31T02:23:16;18.40;86.30
12839;DHT22;6486;51.034;5.262;2023-07-31T02:25:42;18.40;86.30
12839;DHT22;6486;51.034;5.262;2023-07-31T02:28:08;18.40;86.30
12839;DHT22;6486;51.034;5.262;2023-07-31T02:30:34;18.40;86.30
12839;DHT22;6486;51.034;5.262;2023-07-31T02:32:59;18.40;86.30
12839;DHT22;6486;51.034;5.262;2023-07-31T02:35:25;18.40;86.30
12839;DHT22;6486;51.034;5.262;2023-07-31T02:37:50;18.40;86.30
12839;DHT22;6486;51.034;5.262;2023-07-31T02:40:16;18.40;86.20
12839;DHT22;6486;51.034;5.262;2023-07-31T02:42:41;18.40;86.30
12839;DHT22;6486;51.034;5.262;2023-07-31T02:45:07;18.40;86.80
12839;DHT22;6486;51.034;5.262;2023-07-31T02:47:33;18.40;86.20
12839;DHT22;6486;51.034;5.262;2023-07-31T02:49:59;18.40;86.30
12839;DHT22;6486;51.034;5.262;2023-07-31T02:52:25;18.40;86.20
12839;DHT22;6486;51.034;5.262;2023-07-31T02:54:52;18.40;86.20
12839;DHT22;6486;51.034;5.262;2023-07-31T02:57:17;18.40;86.20
12839;DHT22;6486;51.034;5.262;2023-07-31T02:59:43;18.40;86.30
12839;DHT22;6486;51.034;5.262;2023-07-31T03:02:08;18.40;86.40
12839;DHT22;6486;51.034;5.262;2023-07-31T03:04:34;18.40;86.40
12839;DHT22;6486;51.034;5.262;2023-07-31T03:07:00;18.40;86.40
12839;DHT22;6486;51.034;5.262;2023-07-31T03:09:25;18.40;86.40
12839;DHT22;6486;51.034;5.262;2023-07-31T03:11:51;18.50;86.40
12839;DHT22;6486;51.034;5.262;2023-07-31T03:14:16;18.50;86.40
12839;DHT22;6486;51.034;5.262;2023-07-31T03:16:42;18.40;86.30
12839;DHT22;6486;51.034;5.262;2023-07-31T03:19:08;18.50;86.30
12839;DHT22;6486;51.034;5.262;2023-07-31T03:21:33;18.50;86.20
12839;DHT22;6486;51.034;5.262;2023-07-31T03:23:59;18.50;86.10
12839;DHT22;6486;51.034;5.262;2023-07-31T03:26:25;18.50;86.00
12839;DHT22;6486;51.034;5.262;2023-07-31T03:28:50;18.50;86.00
12839;DHT22;6486;51.034;5.262;2023-07-31T03:31:16;18.50;85.90
12839;DHT22;6486;51.034;5.262;2023-07-31T03:33:41;18.50;85.90
12839;DHT22;6486;51.034;5.262;2023-07-31T03:36:07;18.50;85.90
12839;DHT22;6486;51.034;5.262;2023-07-31T03:38:34;18.50;86.00
12839;DHT22;6486;51.034;5.262;2023-07-31T03:40:59;18.50;86.00
12839;DHT22;6486;51.034;5.262;2023-07-31T03:43:25;18.60;86.20
12839;DHT22;6486;51.034;5.262;2023-07-31T03:45:51;18.50;86.10
12839;DHT22;6486;51.034;5.262;2023-07-31T03:48:16;18.50;86.10
12839;DHT22;6486;51.034;5.262;2023-07-31T03:50:42;18.50;86.10
12839;DHT22;6486;51.034;5.262;2023-07-31T03:53:08;18.50;86.20
12839;DHT22;6486;51.034;5.262;2023-07-31T03:55:33;18.50;86.30
12839;DHT22;6486;51.034;5.262;2023-07-31T03:57:59;18.50;86.40
12839;DHT22;6486;51.034;5.262;2023-07-31T04:00:26;18.50;86.40
12839;DHT22;6486;51.034;5.262;2023-07-31T04:02:52;18.60;86.60
12839;DHT22;6486;51.034;5.262;2023-07-31T04:05:18;18.60;86.50
12839;DHT22;6486;51.034;5.262;2023-07-31T04:07:44;18.50;86.50
12839;DHT22;6486;51.034;5.262;2023-07-31T04:10:09;18.50;86.50
12839;DHT22;6486;51.034;5.262;2023-07-31T04:12:35;18.60;86.60
12839;DHT22;6486;51.034;5.262;2023-07-31T04:15:01;18.50;86.50
12839;DHT22;6486;51.034;5.262;2023-07-31T04:17:26;18.60;86.60
12839;DHT22;6486;51.034;5.262;2023-07-31T04:19:52;18.60;86.60
12839;DHT22;6486;51.034;5.262;2023-07-31T04:22:17;18.60;86.60
12839;DHT22;6486;51.034;5.262;2023-07-31T04:24:43;18.60;86.70
12839;DHT22;6486;51.034;5.262;2023-07-31T04:27:09;18.50;86.60
12839;DHT22;6486;51.034;5.262;2023-07-31T04:29:34;18.50;86.60
12839;DHT22;6486;51.034;5.262;2023-07-31T04:32:00;18.60;86.80
12839;DHT22;6486;51.034;5.262;2023-07-31T04:34:26;18.60;86.70
12839;DHT22;6486;51.034;5.262;2023-07-31T04:36:51;18.60;86.70
12839;DHT22;6486;51.034;5.262;2023-07-31T04:39:17;18.60;86.60
12839;DHT22;6486;51.034;5.262;2023-07-31T04:41:42;18.60;86.60
12839;DHT22;6486;51.034;5.262;2023-07-31T04:44:08;18.60;86.60
12839;DHT22;6486;51.034;5.262;2023-07-31T04:46:36;18.60;86.70
12839;DHT22;6486;51.034;5.262;2023-07-31T04:49:02;18.60;86.70
12839;DHT22;6486;51.034;5.262;2023-07-31T04:51:28;18.60;86.70
12839;DHT22;6486;51.034;5.262;2023-07-31T04:53:54;18.60;86.70
12839;DHT22;6486;51.034;5.262;2023-07-31T04:56:19;18.60;86.70
12839;DHT22;6486;51.034;5.262;2023-07-31T04:58:45;18.60;87.40
12839;DHT22;6486;51.034;5.262;2023-07-31T05:01:11;18.50;86.70
12839;DHT22;6486;51.034;5.262;2023-07-31T05:03:36;18.50;86.80
12839;DHT22;6486;51.034;5.262;2023-07-31T05:06:02;18.50;86.80
12839;DHT22;6486;51.034;5.262;2023-07-31T05:08:27;18.50;86.90
12839;DHT22;6486;51.034;5.262;2023-07-31T05:10:53;18.50;87.00
12839;DHT22;6486;51.034;5.262;2023-07-31T05:13:19;18.50;87.10
12839;DHT22;6486;51.034;5.262;2023-07-31T05:15:45;18.40;87.20
12839;DHT22;6486;51.034;5.262;2023-07-31T05:18:11;18.40;87.50
12839;DHT22;6486;51.034;5.262;2023-07-31T05:20:36;18.40;87.60
12839;DHT22;6486;51.034;5.262;2023-07-31T05:23:02;18.40;87.90
12839;DHT22;6486;51.034;5.262;2023-07-31T05:25:27;18.40;88.40
12839;DHT22;6486;51.034;5.262;2023-07-31T05:27:53;18.40;88.40
12839;DHT22;6486;51.034;5.262;2023-07-31T05:30:19;18.40;88.60
12839;DHT22;6486;51.034;5.262;2023-07-31T05:32:44;18.40;88.70
12839;DHT22;6486;51.034;5.262;2023-07-31T05:35:10;18.40;88.70
12839;DHT22;6486;51.034;5.262;2023-07-31T05:37:36;18.40;88.70
12839;DHT22;6486;51.034;5.262;2023-07-31T05:40:01;18.40;88.70
12839;DHT22;6486;51.034;5.262;2023-07-31T05:42:27;18.40;88.70
12839;DHT22;6486;51.034;5.262;2023-07-31T05:44:53;18.40;88.80
12839;DHT22;6486;51.034;5.262;2023-07-31T05:47:19;18.30;88.80
12839;DHT22;6486;51.034;5.262;2023-07-31T05:49:45;18.30;89.00
12839;DHT22;6486;51.034;5.262;2023-07-31T05:52:10;18.40;89.00
12839;DHT22;6486;51.034;5.262;2023-07-31T05:54:36;18.40;89.10
12839;DHT22;6486;51.034;5.262;2023-07-31T05:57:02;18.40;89.00
12839;DHT22;6486;51.034;5.262;2023-07-31T05:59:27;18.40;89.10
12839;DHT22;6486;51.034;5.262;2023-07-31T06:01:53;18.40;89.20
12839;DHT22;6486;51.034;5.262;2023-07-31T06:04:19;18.40;89.40
12839;DHT22;6486;51.034;5.262;2023-07-31T06:06:44;18.30;89.40
12839;DHT22;6486;51.034;5.262;2023-07-31T06:09:10;18.30;89.40
12839;DHT22;6486;51.034;5.262;2023-07-31T06:11:37;18.30;89.40
12839;DHT22;6486;51.034;5.262;2023-07-31T06:14:02;18.30;89.50
12839;DHT22;6486;51.034;5.262;2023-07-31T06:16:28;18.30;89.50
12839;DHT22;6486;51.034;5.262;2023-07-31T06:18:54;18.30;89.60
12839;DHT22;6486;51.034;5.262;2023-07-31T06:21:19;18.30;89.60
12839;DHT22;6486;51.034;5.262;2023-07-31T06:23:45;18.20;89.60
12839;DHT22;6486;51.034;5.262;2023-07-31T06:26:11;18.20;89.70
12839;DHT22;6486;51.034;5.262;2023-07-31T06:28:36;18.20;89.80
12839;DHT22;6486;51.034;5.262;2023-07-31T06:31:02;18.20;90.00
12839;DHT22;6486;51.034;5.262;2023-07-31T06:33:28;18.20;90.00
12839;DHT22;6486;51.034;5.262;2023-07-31T06:35:53;18.20;90.30
12839;DHT22;6486;51.034;5.262;2023-07-31T06:38:24;18.10;90.00
12839;DHT22;6486;51.034;5.262;2023-07-31T06:40:49;18.10;90.10
12839;DHT22;6486;51.034;5.262;2023-07-31T06:43:15;18.10;90.10
12839;DHT22;6486;51.034;5.262;2023-07-31T06:45:41;18.00;90.10
12839;DHT22;6486;51.034;5.262;2023-07-31T06:48:07;18.00;90.20
12839;DHT22;6486;51.034;5.262;2023-07-31T06:50:32;17.90;90.10
12839;DHT22;6486;51.034;5.262;2023-07-31T06:52:58;17.90;90.20
12839;DHT22;6486;51.034;5.262;2023-07-31T06:55:25;17.90;90.30
12839;DHT22;6486;51.034;5.262;2023-07-31T06:57:53;17.90;90.40
12839;DHT22;6486;51.034;5.262;2023-07-31T07:00:20;17.90;90.40
12839;DHT22;6486;51.034;5.262;2023-07-31T07:02:46;17.90;90.40
12839;DHT22;6486;51.034;5.262;2023-07-31T07:05:16;17.90;90.40
12839;DHT22;6486;51.034;5.262;2023-07-31T07:07:42;17.90;90.40
12839;DHT22;6486;51.034;5.262;2023-07-31T07:10:08;18.00;90.40
12839;DHT22;6486;51.034;5.262;2023-07-31T07:12:34;18.00;90.40
12839;DHT22;6486;51.034;5.262;2023-07-31T07:15:00;18.00;90.40
12839;DHT22;6486;51.034;5.262;2023-07-31T07:17:28;18.10;90.50
12839;DHT22;6486;51.034;5.262;2023-07-31T07:19:54;18.20;90.50
12839;DHT22;6486;51.034;5.262;2023-07-31T07:22:20;18.20;90.40
12839;DHT22;6486;51.034;5.262;2023-07-31T07:24:46;18.20;90.50
12839;DHT22;6486;51.034;5.262;2023-07-31T07:27:11;18.20;90.50
12839;DHT22;6486;51.034;5.262;2023-07-31T07:29:38;18.20;90.50
12839;DHT22;6486;51.034;5.262;2023-07-31T07:32:04;18.30;90.50
12839;DHT22;6486;51.034;5.262;2023-07-31T07:34:30;18.30;90.50
12839;DHT22;6486;51.034;5.262;2023-07-31T07:36:56;18.30;90.50
12839;DHT22;6486;51.034;5.262;2023-07-31T07:39:22;18.30;90.50
12839;DHT22;6486;51.034;5.262;2023-07-31T07:41:47;18.30;90.50
12839;DHT22;6486;51.034;5.262;2023-07-31T07:44:13;18.30;90.50
12839;DHT22;6486;51.034;5.262;2023-07-31T07:46:39;18.30;90.50
12839;DHT22;6486;51.034;5.262;2023-07-31T07:49:05;18.30;90.50
12839;DHT22;6486;51.034;5.262;2023-07-31T07:51:31;18.30;90.50
12839;DHT22;6486;51.034;5.262;2023-07-31T07:53:58;18.30;90.50
12839;DHT22;6486;51.034;5.262;2023-07-31T07:56:25;18.30;90.50
12839;DHT22;6486;51.034;5.262;2023-07-31T07:58:50;18.30;90.50
12839;DHT22;6486;51.034;5.262;2023-07-31T08:01:16;18.30;90.50
12839;DHT22;6486;51.034;5.262;2023-07-31T08:03:42;18.40;90.50
12839;DHT22;6486;51.034;5.262;2023-07-31T08:06:07;18.40;90.50
12839;DHT22;6486;51.034;5.262;2023-07-31T08:08:35;18.40;90.50
12839;DHT22;6486;51.034;5.262;2023-07-31T08:11:01;18.50;90.50
12839;DHT22;6486;51.034;5.262;2023-07-31T08:13:27;18.50;90.40
12839;DHT22;6486;51.034;5.262;2023-07-31T08:15:52;18.40;90.40
12839;DHT22;6486;51.034;5.262;2023-07-31T08:18:18;18.50;90.40
12839;DHT22;6486;51.034;5.262;2023-07-31T08:20:44;18.50;90.40
12839;DHT22;6486;51.034;5.262;2023-07-31T08:23:10;18.50;90.40
12839;DHT22;6486;51.034;5.262;2023-07-31T08:25:36;18.50;90.40
12839;DHT22;6486;51.034;5.262;2023-07-31T08:28:05;18.50;90.30
12839;DHT22;6486;51.034;5.262;2023-07-31T08:30:31;18.50;90.30
12839;DHT22;6486;51.034;5.262;2023-07-31T08:32:57;18.60;90.30
12839;DHT22;6486;51.034;5.262;2023-07-31T08:35:23;18.60;90.20
12839;DHT22;6486;51.034;5.262;2023-07-31T08:37:49;18.50;90.10
12839;DHT22;6486;51.034;5.262;2023-07-31T08:40:14;18.50;90.10
12839;DHT22;6486;51.034;5.262;2023-07-31T08:42:47;18.60;90.10
12839;DHT22;6486;51.034;5.262;2023-07-31T08:45:20;18.50;90.00
12839;DHT22;6486;51.034;5.262;2023-07-31T08:47:47;18.60;90.10
12839;DHT22;6486;51.034;5.262;2023-07-31T08:50:14;18.60;90.20
12839;DHT22;6486;51.034;5.262;2023-07-31T08:52:40;18.60;90.20
12839;DHT22;6486;51.034;5.262;2023-07-31T08:55:07;18.70;90.10
12839;DHT22;6486;51.034;5.262;2023-07-31T08:57:35;18.70;90.00
12839;DHT22;6486;51.034;5.262;2023-07-31T09:00:02;18.70;90.00
12839;DHT22;6486;51.034;5.262;2023-07-31T09:02:37;18.80;90.00
12839;DHT22;6486;51.034;5.262;2023-07-31T09:05:06;18.90;90.00
12839;DHT22;6486;51.034;5.262;2023-07-31T09:07:34;18.90;89.80
12839;DHT22;6486;51.034;5.262;2023-07-31T09:10:00;18.90;89.40
12839;DHT22;6486;51.034;5.262;2023-07-31T09:12:26;18.90;89.60
12839;DHT22;6486;51.034;5.262;2023-07-31T09:14:51;18.90;89.60
12839;DHT22;6486;51.034;5.262;2023-07-31T09:17:29;18.90;89.30
12839;DHT22;6486;51.034;5.262;2023-07-31T09:19:55;18.90;89.20
12839;DHT22;6486;51.034;5.262;2023-07-31T09:22:34;19.00;89.20
12839;DHT22;6486;51.034;5.262;2023-07-31T09:28:02;19.00;89.90
12839;DHT22;6486;51.034;5.262;2023-07-31T09:30:28;19.00;89.10
12839;DHT22;6486;51.034;5.262;2023-07-31T09:33:05;19.00;89.00
12839;DHT22;6486;51.034;5.262;2023-07-31T09:35:34;19.00;89.00
12839;DHT22;6486;51.034;5.262;2023-07-31T09:38:04;19.00;89.00
12839;DHT22;6486;51.034;5.262;2023-07-31T09:40:35;19.00;89.00
12839;DHT22;6486;51.034;5.262;2023-07-31T09:43:02;19.00;89.00
12839;DHT22;6486;51.034;5.262;2023-07-31T09:45:29;18.90;89.10
12839;DHT22;6486;51.034;5.262;2023-07-31T09:47:56;18.90;89.20
12839;DHT22;6486;51.034;5.262;2023-07-31T09:50:23;18.90;89.30
12839;DHT22;6486;51.034;5.262;2023-07-31T09:52:50;18.90;89.80
12839;DHT22;6486;51.034;5.262;2023-07-31T09:55:16;18.90;89.10
12839;DHT22;6486;51.034;5.262;2023-07-31T09:57:44;18.90;89.10
12839;DHT22;6486;51.034;5.262;2023-07-31T10:00:11;18.90;89.10
12839;DHT22;6486;51.034;5.262;2023-07-31T10:02:38;18.90;89.00
12839;DHT22;6486;51.034;5.262;2023-07-31T10:05:05;19.00;89.00
12839;DHT22;6486;51.034;5.262;2023-07-31T10:07:36;19.10;89.10
12839;DHT22;6486;51.034;5.262;2023-07-31T10:10:04;19.20;88.80
12839;DHT22;6486;51.034;5.262;2023-07-31T10:12:32;19.30;88.90
12839;DHT22;6486;51.034;5.262;2023-07-31T10:14:59;19.40;88.60
12839;DHT22;6486;51.034;5.262;2023-07-31T10:17:26;19.40;88.00
12839;DHT22;6486;51.034;5.262;2023-07-31T10:19:53;19.40;88.00
12839;DHT22;6486;51.034;5.262;2023-07-31T10:22:20;19.50;88.10
12839;DHT22;6486;51.034;5.262;2023-07-31T10:24:46;19.60;87.40
12839;DHT22;6486;51.034;5.262;2023-07-31T10:27:13;19.70;87.00
12839;DHT22;6486;51.034;5.262;2023-07-31T10:29:41;19.70;86.40
12839;DHT22;6486;51.034;5.262;2023-07-31T10:32:09;19.80;86.60
12839;DHT22;6486;51.034;5.262;2023-07-31T10:34:38;19.90;86.40
12839;DHT22;6486;51.034;5.262;2023-07-31T10:40:01;20.30;86.00
12839;DHT22;6486;51.034;5.262;2023-07-31T10:42:34;20.40;85.50
12839;DHT22;6486;51.034;5.262;2023-07-31T10:45:05;20.40;85.00
12839;DHT22;6486;51.034;5.262;2023-07-31T10:47:36;20.40;84.40
12839;DHT22;6486;51.034;5.262;2023-07-31T10:57:54;20.30;84.20
12839;DHT22;6486;51.034;5.262;2023-07-31T11:00:26;20.20;84.00
12839;DHT22;6486;51.034;5.262;2023-07-31T11:08:30;20.10;84.10
12839;DHT22;6486;51.034;5.262;2023-07-31T11:13:31;20.00;84.50
12839;DHT22;6486;51.034;5.262;2023-07-31T11:15:58;20.00;84.60
12839;DHT22;6486;51.034;5.262;2023-07-31T11:18:24;20.00;84.70
12839;DHT22;6486;51.034;5.262;2023-07-31T11:20:49;20.00;84.80
12839;DHT22;6486;51.034;5.262;2023-07-31T11:23:16;20.00;84.80
12839;DHT22;6486;51.034;5.262;2023-07-31T11:25:42;20.00;84.80
12839;DHT22;6486;51.034;5.262;2023-07-31T11:28:13;20.00;84.80
12839;DHT22;6486;51.034;5.262;2023-07-31T11:30:40;20.10;84.80
12839;DHT22;6486;51.034;5.262;2023-07-31T11:33:07;20.10;84.80
12839;DHT22;6486;51.034;5.262;2023-07-31T11:35:44;20.10;84.90
12839;DHT22;6486;51.034;5.262;2023-07-31T11:38:12;20.20;84.50
12839;DHT22;6486;51.034;5.262;2023-07-31T11:40:44;20.20;84.30
12839;DHT22;6486;51.034;5.262;2023-07-31T11:43:10;20.30;84.20
12839;DHT22;6486;51.034;5.262;2023-07-31T11:45:41;20.40;84.10
12839;DHT22;6486;51.034;5.262;2023-07-31T11:48:07;20.60;83.90
12839;DHT22;6486;51.034;5.262;2023-07-31T11:50:34;20.70;83.50
12839;DHT22;6486;51.034;5.262;2023-07-31T11:53:04;20.80;83.40
12839;DHT22;6486;51.034;5.262;2023-07-31T11:55:32;20.90;83.00
12839;DHT22;6486;51.034;5.262;2023-07-31T11:57:59;21.00;82.40
12839;DHT22;6486;51.034;5.262;2023-07-31T12:00:25;21.00;82.30
12839;DHT22;6486;51.034;5.262;2023-07-31T12:02:52;21.00;82.20
12839;DHT22;6486;51.034;5.262;2023-07-31T12:05:18;21.00;82.00
12839;DHT22;6486;51.034;5.262;2023-07-31T12:07:52;20.90;81.70
12839;DHT22;6486;51.034;5.262;2023-07-31T12:10:31;20.90;81.90
12839;DHT22;6486;51.034;5.262;2023-07-31T12:13:08;20.90;81.60
12839;DHT22;6486;51.034;5.262;2023-07-31T12:18:12;20.80;81.40
12839;DHT22;6486;51.034;5.262;2023-07-31T12:20:43;20.70;81.90
12839;DHT22;6486;51.034;5.262;2023-07-31T12:23:28;20.70;81.30
12839;DHT22;6486;51.034;5.262;2023-07-31T12:31:05;20.80;81.50
12839;DHT22;6486;51.034;5.262;2023-07-31T12:33:33;20.80;81.50
12839;DHT22;6486;51.034;5.262;2023-07-31T12:36:01;20.90;81.30
12839;DHT22;6486;51.034;5.262;2023-07-31T12:38:27;21.10;80.90
12839;DHT22;6486;51.034;5.262;2023-07-31T12:40:53;21.20;79.90
12839;DHT22;6486;51.034;5.262;2023-07-31T12:43:19;21.40;79.50
12839;DHT22;6486;51.034;5.262;2023-07-31T12:45:44;21.60;79.00
12839;DHT22;6486;51.034;5.262;2023-07-31T12:48:10;21.70;79.10
12839;DHT22;6486;51.034;5.262;2023-07-31T12:50:36;21.90;79.00
12839;DHT22;6486;51.034;5.262;2023-07-31T12:53:02;21.90;78.70
12839;DHT22;6486;51.034;5.262;2023-07-31T12:55:29;22.00;78.30
12839;DHT22;6486;51.034;5.262;2023-07-31T12:57:55;21.90;77.60
12839;DHT22;6486;51.034;5.262;2023-07-31T13:00:21;21.90;77.50
12839;DHT22;6486;51.034;5.262;2023-07-31T13:02:47;21.80;77.60
12839;DHT22;6486;51.034;5.262;2023-07-31T13:05:13;21.80;76.80
12839;DHT22;6486;51.034;5.262;2023-07-31T13:07:39;21.70;76.90
12839;DHT22;6486;51.034;5.262;2023-07-31T13:10:06;21.60;77.00
12839;DHT22;6486;51.034;5.262;2023-07-31T13:12:32;21.50;77.10
12839;DHT22;6486;51.034;5.262;2023-07-31T13:14:58;21.50;77.30
12839;DHT22;6486;51.034;5.262;2023-07-31T13:17:23;21.40;77.50
12839;DHT22;6486;51.034;5.262;2023-07-31T13:19:49;21.30;77.60
12839;DHT22;6486;51.034;5.262;2023-07-31T13:22:14;21.30;77.80
12839;DHT22;6486;51.034;5.262;2023-07-31T13:24:40;21.30;77.90
12839;DHT22;6486;51.034;5.262;2023-07-31T13:27:06;21.20;78.00
12839;DHT22;6486;51.034;5.262;2023-07-31T13:29:32;21.20;78.20
12839;DHT22;6486;51.034;5.262;2023-07-31T13:31:58;21.20;78.40
12839;DHT22;6486;51.034;5.262;2023-07-31T13:34:23;21.20;78.50
12839;DHT22;6486;51.034;5.262;2023-07-31T13:36:49;21.20;78.50
12839;DHT22;6486;51.034;5.262;2023-07-31T13:39:15;21.20;78.40
12839;DHT22;6486;51.034;5.262;2023-07-31T13:41:40;21.10;78.40
12839;DHT22;6486;51.034;5.262;2023-07-31T13:44:06;21.10;78.60
12839;DHT22;6486;51.034;5.262;2023-07-31T13:46:32;21.10;78.50
12839;DHT22;6486;51.034;5.262;2023-07-31T13:49:01;21.00;78.50
12839;DHT22;6486;51.034;5.262;2023-07-31T13:51:27;21.00;78.30
12839;DHT22;6486;51.034;5.262;2023-07-31T13:53:53;20.90;78.20
12839;DHT22;6486;51.034;5.262;2023-07-31T13:56:19;20.90;78.30
12839;DHT22;6486;51.034;5.262;2023-07-31T13:58:45;20.90;78.20
12839;DHT22;6486;51.034;5.262;2023-07-31T14:01:10;20.90;78.30
12839;DHT22;6486;51.034;5.262;2023-07-31T14:03:36;20.80;78.30
12839;DHT22;6486;51.034;5.262;2023-07-31T14:06:02;20.80;78.50
12839;DHT22;6486;51.034;5.262;2023-07-31T14:08:28;20.80;78.60
12839;DHT22;6486;51.034;5.262;2023-07-31T14:10:55;20.90;78.70
12839;DHT22;6486;51.034;5.262;2023-07-31T14:13:20;20.80;78.60
12839;DHT22;6486;51.034;5.262;2023-07-31T14:15:46;20.80;78.80
12839;DHT22;6486;51.034;5.262;2023-07-31T14:18:12;20.80;79.00
12839;DHT22;6486;51.034;5.262;2023-07-31T14:20:37;20.70;79.50
12839;DHT22;6486;51.034;5.262;2023-07-31T14:23:03;20.70;79.60
12839;DHT22;6486;51.034;5.262;2023-07-31T14:25:29;20.60;80.20
12839;DHT22;6486;51.034;5.262;2023-07-31T14:27:54;20.50;80.80
12839;DHT22;6486;51.034;5.262;2023-07-31T14:30:20;20.40;81.90
12839;DHT22;6486;51.034;5.262;2023-07-31T14:32:46;20.30;81.80
12839;DHT22;6486;51.034;5.262;2023-07-31T14:35:12;20.20;82.20
12839;DHT22;6486;51.034;5.262;2023-07-31T14:37:40;20.20;83.00
12839;DHT22;6486;51.034;5.262;2023-07-31T14:40:07;20.10;83.30
12839;DHT22;6486;51.034;5.262;2023-07-31T14:42:33;20.00;83.70
12839;DHT22;6486;51.034;5.262;2023-07-31T14:44:59;20.00;84.20
12839;DHT22;6486;51.034;5.262;2023-07-31T14:47:25;20.00;84.50
12839;DHT22;6486;51.034;5.262;2023-07-31T14:49:50;20.00;84.70
12839;DHT22;6486;51.034;5.262;2023-07-31T14:52:16;20.00;85.00
12839;DHT22;6486;51.034;5.262;2023-07-31T14:54:42;20.00;85.30
12839;DHT22;6486;51.034;5.262;2023-07-31T14:57:08;20.00;85.80
12839;DHT22;6486;51.034;5.262;2023-07-31T14:59:33;20.00;86.00
12839;DHT22;6486;51.034;5.262;2023-07-31T15:01:59;20.00;86.30
12839;DHT22;6486;51.034;5.262;2023-07-31T15:04:25;20.00;86.40
12839;DHT22;6486;51.034;5.262;2023-07-31T15:06:52;19.90;86.60
12839;DHT22;6486;51.034;5.262;2023-07-31T15:09:17;19.90;86.90
12839;DHT22;6486;51.034;5.262;2023-07-31T15:11:43;19.90;87.20
12839;DHT22;6486;51.034;5.262;2023-07-31T15:14:09;19.80;87.30
12839;DHT22;6486;51.034;5.262;2023-07-31T15:16:35;19.80;87.50
12839;DHT22;6486;51.034;5.262;2023-07-31T15:19:00;19.80;87.60
12839;DHT22;6486;51.034;5.262;2023-07-31T15:21:26;19.80;87.70
12839;DHT22;6486;51.034;5.262;2023-07-31T15:23:52;19.80;87.90
12839;DHT22;6486;51.034;5.262;2023-07-31T15:26:18;19.70;87.90
12839;DHT22;6486;51.034;5.262;2023-07-31T15:28:49;19.70;88.00
12839;DHT22;6486;51.034;5.262;2023-07-31T15:31:15;19.70;88.20
12839;DHT22;6486;51.034;5.262;2023-07-31T15:33:41;19.70;88.40
12839;DHT22;6486;51.034;5.262;2023-07-31T15:36:06;19.70;88.50
12839;DHT22;6486;51.034;5.262;2023-07-31T15:38:32;19.70;88.80
12839;DHT22;6486;51.034;5.262;2023-07-31T15:40:58;19.70;88.90
12839;DHT22;6486;51.034;5.262;2023-07-31T15:43:24;19.60;88.90
12839;DHT22;6486;51.034;5.262;2023-07-31T15:45:50;19.60;89.10
12839;DHT22;6486;51.034;5.262;2023-07-31T15:48:15;19.60;89.20
12839;DHT22;6486;51.034;5.262;2023-07-31T15:50:41;19.70;89.30
12839;DHT22;6486;51.034;5.262;2023-07-31T15:53:06;19.60;89.20
12839;DHT22;6486;51.034;5.262;2023-07-31T15:55:33;19.60;89.20
12839;DHT22;6486;51.034;5.262;2023-07-31T15:57:59;19.60;89.20
12839;DHT22;6486;51.034;5.262;2023-07-31T16:00:24;19.60;89.40
12839;DHT22;6486;51.034;5.262;2023-07-31T16:02:50;19.60;89.50
12839;DHT22;6486;51.034;5.262;2023-07-31T16:05:16;19.60;89.60
12839;DHT22;6486;51.034;5.262;2023-07-31T16:07:41;19.60;89.70
12839;DHT22;6486;51.034;5.262;2023-07-31T16:10:07;19.60;89.80
12839;DHT22;6486;51.034;5.262;2023-07-31T16:12:33;19.60;89.80
12839;DHT22;6486;51.034;5.262;2023-07-31T16:14:59;19.60;89.90
12839;DHT22;6486;51.034;5.262;2023-07-31T16:17:24;19.60;89.90